Terminal Aerodrome Forecast
Issued by NWS Duluth, MN

Home | Current Version | Previous Version | Text Only | Print | Product List | Glossary On
Versions: 1 2 3 4 5 6 7 8 9 10 11 12 13 14 15 16 17 18 19 20 21 22 23 24 25 26 27 28 29 30 31 32 33 34 35 36 37 38 39 40
000
FTUS43 KDLH 192000 AAA
TAFDLH
TAF AMD
KDLH 192018Z 1920/2018 20011KT P6SM VCSH OVC014
      TEMPO 1920/1923 5SM -RA BR BKN008 OVC014
     FM192300 21010KT 5SM BR SCT006 OVC013
     FM200100 20007KT 6SM BR SCT015 BKN100
      TEMPO 2004/2007 4SM -TSRA BR OVC015CB
     FM200700 25005KT 5SM BR OVC012
     FM201100 29011KT P6SM BKN015
     FM201600 28013KT P6SM SCT025=

USA.gov is the U.S. government's official web portal to all federal, state and local government web resources and services.